sensor_id;sensor_type;location;lat;lon;timestamp;P1;durP1;ratioP1;P2;durP2;ratioP2
29294;SDS011;16305;48.566;8.846;2022-10-16T00:00:33;4.47;;;2.63;;
29294;SDS011;16305;48.566;8.846;2022-10-16T00:03:00;2.63;;;2.30;;
29294;SDS011;16305;48.566;8.846;2022-10-16T00:05:26;2.73;;;1.97;;
29294;SDS011;16305;48.566;8.846;2022-10-16T00:07:52;2.70;;;1.70;;
29294;SDS011;16305;48.566;8.846;2022-10-16T00:10:17;4.77;;;2.23;;
29294;SDS011;16305;48.566;8.846;2022-10-16T00:12:43;3.83;;;2.10;;
29294;SDS011;16305;48.566;8.846;2022-10-16T00:15:09;3.07;;;1.60;;
29294;SDS011;16305;48.566;8.846;2022-10-16T00:17:34;2.47;;;2.03;;
29294;SDS011;16305;48.566;8.846;2022-10-16T00:20:00;2.03;;;1.83;;
29294;SDS011;16305;48.566;8.846;2022-10-16T00:22:25;5.00;;;1.97;;
29294;SDS011;16305;48.566;8.846;2022-10-16T00:24:51;2.43;;;1.60;;
29294;SDS011;16305;48.566;8.846;2022-10-16T00:27:17;2.73;;;1.70;;
29294;SDS011;16305;48.566;8.846;2022-10-16T00:29:42;3.07;;;2.43;;
29294;SDS011;16305;48.566;8.846;2022-10-16T00:32:08;3.40;;;2.60;;
29294;SDS011;16305;48.566;8.846;2022-10-16T00:34:34;4.67;;;2.90;;
29294;SDS011;16305;48.566;8.846;2022-10-16T00:36:59;6.13;;;4.67;;
29294;SDS011;16305;48.566;8.846;2022-10-16T00:39:25;5.50;;;3.97;;
29294;SDS011;16305;48.566;8.846;2022-10-16T00:41:51;7.03;;;5.30;;
29294;SDS011;16305;48.566;8.846;2022-10-16T00:47:28;3.33;;;2.20;;
29294;SDS011;16305;48.566;8.846;2022-10-16T00:50:10;4.27;;;2.30;;
29294;SDS011;16305;48.566;8.846;2022-10-16T00:52:44;8.10;;;4.47;;
29294;SDS011;16305;48.566;8.846;2022-10-16T00:55:12;7.90;;;4.50;;
29294;SDS011;16305;48.566;8.846;2022-10-16T00:57:38;6.00;;;3.90;;
29294;SDS011;16305;48.566;8.846;2022-10-16T01:00:05;8.13;;;5.53;;
29294;SDS011;16305;48.566;8.846;2022-10-16T01:02:32;13.40;;;7.73;;
29294;SDS011;16305;48.566;8.846;2022-10-16T01:04:58;3.97;;;2.90;;
29294;SDS011;16305;48.566;8.846;2022-10-16T01:09:57;2.83;;;1.80;;
29294;SDS011;16305;48.566;8.846;2022-10-16T01:12:58;3.03;;;2.30;;
29294;SDS011;16305;48.566;8.846;2022-10-16T01:15:42;8.07;;;2.77;;
29294;SDS011;16305;48.566;8.846;2022-10-16T01:18:14;9.53;;;5.23;;
29294;SDS011;16305;48.566;8.846;2022-10-16T01:20:46;8.80;;;4.33;;
29294;SDS011;16305;48.566;8.846;2022-10-16T01:26:20;8.60;;;5.27;;
29294;SDS011;16305;48.566;8.846;2022-10-16T01:29:08;7.33;;;4.90;;
29294;SDS011;16305;48.566;8.846;2022-10-16T01:31:50;9.17;;;4.43;;
29294;SDS011;16305;48.566;8.846;2022-10-16T01:34:22;5.63;;;4.70;;
29294;SDS011;16305;48.566;8.846;2022-10-16T01:36:57;7.00;;;4.13;;
29294;SDS011;16305;48.566;8.846;2022-10-16T01:39:38;6.90;;;3.57;;
29294;SDS011;16305;48.566;8.846;2022-10-16T01:42:12;3.70;;;2.90;;
29294;SDS011;16305;48.566;8.846;2022-10-16T01:44:43;4.60;;;2.53;;
29294;SDS011;16305;48.566;8.846;2022-10-16T01:47:12;2.93;;;2.30;;
29294;SDS011;16305;48.566;8.846;2022-10-16T01:49:39;4.43;;;2.57;;
29294;SDS011;16305;48.566;8.846;2022-10-16T01:52:10;4.67;;;2.20;;
29294;SDS011;16305;48.566;8.846;2022-10-16T01:54:39;2.80;;;1.80;;
29294;SDS011;16305;48.566;8.846;2022-10-16T01:57:07;2.13;;;1.93;;
29294;SDS011;16305;48.566;8.846;2022-10-16T01:59:35;3.70;;;1.70;;
29294;SDS011;16305;48.566;8.846;2022-10-16T02:02:04;2.87;;;1.73;;
29294;SDS011;16305;48.566;8.846;2022-10-16T02:04:33;3.23;;;1.97;;
29294;SDS011;16305;48.566;8.846;2022-10-16T02:07:03;1.73;;;1.63;;
29294;SDS011;16305;48.566;8.846;2022-10-16T02:09:29;3.20;;;1.97;;
29294;SDS011;16305;48.566;8.846;2022-10-16T02:11:57;4.13;;;1.73;;
29294;SDS011;16305;48.566;8.846;2022-10-16T02:14:27;3.30;;;1.70;;
29294;SDS011;16305;48.566;8.846;2022-10-16T02:16:53;3.10;;;1.90;;
29294;SDS011;16305;48.566;8.846;2022-10-16T02:19:19;4.10;;;2.10;;
29294;SDS011;16305;48.566;8.846;2022-10-16T02:21:51;3.03;;;1.73;;
29294;SDS011;16305;48.566;8.846;2022-10-16T02:24:47;2.00;;;1.70;;
29294;SDS011;16305;48.566;8.846;2022-10-16T02:30:07;3.27;;;2.00;;
29294;SDS011;16305;48.566;8.846;2022-10-16T02:32:37;3.57;;;1.70;;
29294;SDS011;16305;48.566;8.846;2022-10-16T02:35:06;3.47;;;1.90;;
29294;SDS011;16305;48.566;8.846;2022-10-16T02:37:33;4.10;;;1.60;;
29294;SDS011;16305;48.566;8.846;2022-10-16T02:39:59;1.93;;;1.67;;
29294;SDS011;16305;48.566;8.846;2022-10-16T02:42:29;1.60;;;1.50;;
29294;SDS011;16305;48.566;8.846;2022-10-16T02:45:00;2.20;;;1.70;;
29294;SDS011;16305;48.566;8.846;2022-10-16T02:47:26;1.50;;;1.40;;
29294;SDS011;16305;48.566;8.846;2022-10-16T02:49:51;1.67;;;1.57;;
29294;SDS011;16305;48.566;8.846;2022-10-16T02:52:17;1.73;;;1.40;;
29294;SDS011;16305;48.566;8.846;2022-10-16T02:54:43;3.33;;;1.70;;
29294;SDS011;16305;48.566;8.846;2022-10-16T02:57:08;3.37;;;1.60;;
29294;SDS011;16305;48.566;8.846;2022-10-16T02:59:34;5.83;;;2.40;;
29294;SDS011;16305;48.566;8.846;2022-10-16T03:01:59;3.30;;;1.80;;
29294;SDS011;16305;48.566;8.846;2022-10-16T03:04:25;2.40;;;1.40;;
29294;SDS011;16305;48.566;8.846;2022-10-16T03:06:50;2.93;;;1.70;;
29294;SDS011;16305;48.566;8.846;2022-10-16T03:09:16;5.13;;;1.60;;
29294;SDS011;16305;48.566;8.846;2022-10-16T03:11:41;3.00;;;2.07;;
29294;SDS011;16305;48.566;8.846;2022-10-16T03:14:07;2.73;;;2.53;;
29294;SDS011;16305;48.566;8.846;2022-10-16T03:16:32;5.70;;;2.57;;
29294;SDS011;16305;48.566;8.846;2022-10-16T03:18:58;8.37;;;2.40;;
29294;SDS011;16305;48.566;8.846;2022-10-16T03:21:23;2.73;;;2.50;;
29294;SDS011;16305;48.566;8.846;2022-10-16T03:23:49;4.00;;;2.10;;
29294;SDS011;16305;48.566;8.846;2022-10-16T03:26:15;8.17;;;2.80;;
29294;SDS011;16305;48.566;8.846;2022-10-16T03:28:40;5.23;;;2.40;;
29294;SDS011;16305;48.566;8.846;2022-10-16T03:31:06;2.80;;;2.50;;
29294;SDS011;16305;48.566;8.846;2022-10-16T03:33:33;6.60;;;3.00;;
29294;SDS011;16305;48.566;8.846;2022-10-16T03:35:58;2.80;;;2.30;;
29294;SDS011;16305;48.566;8.846;2022-10-16T03:38:25;5.53;;;2.57;;
29294;SDS011;16305;48.566;8.846;2022-10-16T03:40:50;5.77;;;3.10;;
29294;SDS011;16305;48.566;8.846;2022-10-16T03:43:16;4.20;;;3.30;;
29294;SDS011;16305;48.566;8.846;2022-10-16T03:45:41;4.40;;;3.00;;
29294;SDS011;16305;48.566;8.846;2022-10-16T03:48:07;5.40;;;3.20;;
29294;SDS011;16305;48.566;8.846;2022-10-16T03:50:32;3.73;;;2.87;;
29294;SDS011;16305;48.566;8.846;2022-10-16T03:52:58;3.50;;;2.60;;
29294;SDS011;16305;48.566;8.846;2022-10-16T03:55:23;3.77;;;2.40;;
29294;SDS011;16305;48.566;8.846;2022-10-16T03:57:49;2.93;;;2.63;;
29294;SDS011;16305;48.566;8.846;2022-10-16T04:00:14;2.60;;;2.40;;
29294;SDS011;16305;48.566;8.846;2022-10-16T04:02:40;2.70;;;2.20;;
29294;SDS011;16305;48.566;8.846;2022-10-16T04:05:06;2.63;;;2.20;;
29294;SDS011;16305;48.566;8.846;2022-10-16T04:07:32;3.20;;;2.20;;
29294;SDS011;16305;48.566;8.846;2022-10-16T04:09:57;2.50;;;1.80;;
29294;SDS011;16305;48.566;8.846;2022-10-16T04:12:24;9.77;;;6.10;;
29294;SDS011;16305;48.566;8.846;2022-10-16T04:14:50;8.13;;;4.97;;
29294;SDS011;16305;48.566;8.846;2022-10-16T04:17:16;7.03;;;4.00;;
29294;SDS011;16305;48.566;8.846;2022-10-16T04:19:41;4.53;;;3.90;;
29294;SDS011;16305;48.566;8.846;2022-10-16T04:22:07;3.73;;;3.43;;
29294;SDS011;16305;48.566;8.846;2022-10-16T04:24:33;2.97;;;2.67;;
29294;SDS011;16305;48.566;8.846;2022-10-16T04:26:58;2.77;;;2.50;;
29294;SDS011;16305;48.566;8.846;2022-10-16T04:29:24;2.57;;;2.37;;
29294;SDS011;16305;48.566;8.846;2022-10-16T04:31:49;4.80;;;2.50;;
29294;SDS011;16305;48.566;8.846;2022-10-16T04:34:15;5.33;;;2.63;;
29294;SDS011;16305;48.566;8.846;2022-10-16T04:36:41;2.90;;;2.23;;
29294;SDS011;16305;48.566;8.846;2022-10-16T04:39:06;2.63;;;2.13;;
29294;SDS011;16305;48.566;8.846;2022-10-16T04:41:32;2.43;;;2.00;;
29294;SDS011;16305;48.566;8.846;2022-10-16T04:43:57;2.77;;;1.83;;
29294;SDS011;16305;48.566;8.846;2022-10-16T04:46:23;3.23;;;2.17;;
29294;SDS011;16305;48.566;8.846;2022-10-16T04:48:48;3.30;;;2.30;;
29294;SDS011;16305;48.566;8.846;2022-10-16T04:51:14;4.10;;;2.07;;
29294;SDS011;16305;48.566;8.846;2022-10-16T04:53:39;3.70;;;3.30;;
29294;SDS011;16305;48.566;8.846;2022-10-16T04:56:05;4.27;;;2.87;;
29294;SDS011;16305;48.566;8.846;2022-10-16T04:58:30;2.23;;;2.03;;
29294;SDS011;16305;48.566;8.846;2022-10-16T05:00:56;4.10;;;2.10;;
29294;SDS011;16305;48.566;8.846;2022-10-16T05:03:21;5.77;;;2.07;;
29294;SDS011;16305;48.566;8.846;2022-10-16T05:05:47;3.17;;;1.70;;
29294;SDS011;16305;48.566;8.846;2022-10-16T05:08:13;10.00;;;2.30;;
29294;SDS011;16305;48.566;8.846;2022-10-16T05:10:40;2.10;;;1.90;;
29294;SDS011;16305;48.566;8.846;2022-10-16T05:13:07;2.43;;;1.70;;
29294;SDS011;16305;48.566;8.846;2022-10-16T05:15:33;1.97;;;1.77;;
29294;SDS011;16305;48.566;8.846;2022-10-16T05:17:58;4.77;;;1.90;;
29294;SDS011;16305;48.566;8.846;2022-10-16T05:20:24;5.53;;;1.80;;
29294;SDS011;16305;48.566;8.846;2022-10-16T05:22:50;1.70;;;1.40;;
29294;SDS011;16305;48.566;8.846;2022-10-16T05:25:15;1.90;;;1.70;;
29294;SDS011;16305;48.566;8.846;2022-10-16T05:27:41;2.47;;;2.27;;
29294;SDS011;16305;48.566;8.846;2022-10-16T05:30:07;2.10;;;1.90;;
29294;SDS011;16305;48.566;8.846;2022-10-16T05:32:33;4.70;;;1.90;;
29294;SDS011;16305;48.566;8.846;2022-10-16T05:34:58;2.10;;;1.67;;
29294;SDS011;16305;48.566;8.846;2022-10-16T05:37:24;3.60;;;1.60;;
29294;SDS011;16305;48.566;8.846;2022-10-16T05:39:51;2.03;;;1.70;;
29294;SDS011;16305;48.566;8.846;2022-10-16T05:42:17;2.10;;;1.60;;
29294;SDS011;16305;48.566;8.846;2022-10-16T05:44:43;2.07;;;1.50;;
29294;SDS011;16305;48.566;8.846;2022-10-16T05:47:08;2.40;;;2.00;;
29294;SDS011;16305;48.566;8.846;2022-10-16T05:49:35;4.80;;;2.00;;
29294;SDS011;16305;48.566;8.846;2022-10-16T05:52:01;3.40;;;1.93;;
29294;SDS011;16305;48.566;8.846;2022-10-16T05:54:27;3.70;;;1.47;;
29294;SDS011;16305;48.566;8.846;2022-10-16T05:56:52;2.33;;;2.00;;
29294;SDS011;16305;48.566;8.846;2022-10-16T05:59:18;2.43;;;1.93;;
29294;SDS011;16305;48.566;8.846;2022-10-16T06:01:43;3.40;;;1.73;;
29294;SDS011;16305;48.566;8.846;2022-10-16T06:04:09;3.53;;;1.60;;
29294;SDS011;16305;48.566;8.846;2022-10-16T06:06:34;3.93;;;2.10;;
29294;SDS011;16305;48.566;8.846;2022-10-16T06:09:01;1.90;;;1.70;;
29294;SDS011;16305;48.566;8.846;2022-10-16T06:11:28;5.00;;;2.00;;
29294;SDS011;16305;48.566;8.846;2022-10-16T06:13:56;2.90;;;2.10;;
29294;SDS011;16305;48.566;8.846;2022-10-16T06:16:26;3.03;;;1.93;;
29294;SDS011;16305;48.566;8.846;2022-10-16T06:18:53;2.57;;;2.13;;
29294;SDS011;16305;48.566;8.846;2022-10-16T06:21:21;5.43;;;1.80;;
29294;SDS011;16305;48.566;8.846;2022-10-16T06:23:49;2.30;;;2.10;;
29294;SDS011;16305;48.566;8.846;2022-10-16T06:26:16;2.40;;;1.97;;
29294;SDS011;16305;48.566;8.846;2022-10-16T06:28:43;2.87;;;2.33;;
29294;SDS011;16305;48.566;8.846;2022-10-16T06:31:09;2.93;;;2.20;;
29294;SDS011;16305;48.566;8.846;2022-10-16T06:33:35;2.83;;;2.33;;
29294;SDS011;16305;48.566;8.846;2022-10-16T06:36:02;2.30;;;2.10;;
29294;SDS011;16305;48.566;8.846;2022-10-16T06:38:29;4.20;;;2.10;;
29294;SDS011;16305;48.566;8.846;2022-10-16T06:40:55;4.17;;;2.00;;
29294;SDS011;16305;48.566;8.846;2022-10-16T06:43:21;4.10;;;2.50;;
29294;SDS011;16305;48.566;8.846;2022-10-16T06:45:53;3.37;;;2.20;;
29294;SDS011;16305;48.566;8.846;2022-10-16T06:48:19;3.83;;;2.97;;
29294;SDS011;16305;48.566;8.846;2022-10-16T06:50:55;3.17;;;2.87;;
29294;SDS011;16305;48.566;8.846;2022-10-16T06:53:24;2.50;;;2.30;;
29294;SDS011;16305;48.566;8.846;2022-10-16T06:55:50;2.37;;;2.17;;
29294;SDS011;16305;48.566;8.846;2022-10-16T06:58:16;2.77;;;1.80;;
29294;SDS011;16305;48.566;8.846;2022-10-16T07:00:41;4.03;;;2.00;;
29294;SDS011;16305;48.566;8.846;2022-10-16T07:03:07;2.93;;;2.70;;
29294;SDS011;16305;48.566;8.846;2022-10-16T07:05:36;3.30;;;3.00;;
29294;SDS011;16305;48.566;8.846;2022-10-16T07:08:11;2.20;;;2.00;;
29294;SDS011;16305;48.566;8.846;2022-10-16T07:10:36;3.73;;;2.40;;
29294;SDS011;16305;48.566;8.846;2022-10-16T07:13:02;2.40;;;2.00;;
29294;SDS011;16305;48.566;8.846;2022-10-16T07:15:28;2.43;;;1.87;;
29294;SDS011;16305;48.566;8.846;2022-10-16T07:17:53;3.27;;;2.00;;
29294;SDS011;16305;48.566;8.846;2022-10-16T07:20:19;3.30;;;2.00;;
29294;SDS011;16305;48.566;8.846;2022-10-16T07:22:45;2.47;;;1.87;;
29294;SDS011;16305;48.566;8.846;2022-10-16T07:25:11;2.13;;;1.93;;
29294;SDS011;16305;48.566;8.846;2022-10-16T07:27:36;2.97;;;1.90;;
29294;SDS011;16305;48.566;8.846;2022-10-16T07:30:02;3.87;;;2.37;;
29294;SDS011;16305;48.566;8.846;2022-10-16T07:32:29;2.40;;;2.20;;
29294;SDS011;16305;48.566;8.846;2022-10-16T07:34:54;2.53;;;2.03;;
29294;SDS011;16305;48.566;8.846;2022-10-16T07:37:20;2.40;;;2.07;;
29294;SDS011;16305;48.566;8.846;2022-10-16T07:39:47;3.60;;;1.63;;
29294;SDS011;16305;48.566;8.846;2022-10-16T07:42:12;3.37;;;2.03;;
29294;SDS011;16305;48.566;8.846;2022-10-16T07:44:38;2.13;;;1.70;;
29294;SDS011;16305;48.566;8.846;2022-10-16T07:47:04;2.40;;;1.90;;
29294;SDS011;16305;48.566;8.846;2022-10-16T07:49:30;2.10;;;1.90;;
29294;SDS011;16305;48.566;8.846;2022-10-16T07:51:56;8.00;;;2.80;;
29294;SDS011;16305;48.566;8.846;2022-10-16T07:54:21;10.03;;;4.77;;
29294;SDS011;16305;48.566;8.846;2022-10-16T07:56:47;34.43;;;16.33;;
29294;SDS011;16305;48.566;8.846;2022-10-16T07:59:12;27.10;;;14.17;;
29294;SDS011;16305;48.566;8.846;2022-10-16T08:01:38;14.53;;;9.23;;
29294;SDS011;16305;48.566;8.846;2022-10-16T08:04:04;9.47;;;6.10;;
29294;SDS011;16305;48.566;8.846;2022-10-16T08:06:30;5.53;;;3.40;;
29294;SDS011;16305;48.566;8.846;2022-10-16T08:09:01;2.47;;;2.23;;
29294;SDS011;16305;48.566;8.846;2022-10-16T08:11:26;2.63;;;2.30;;
29294;SDS011;16305;48.566;8.846;2022-10-16T08:13:52;2.70;;;2.00;;
29294;SDS011;16305;48.566;8.846;2022-10-16T08:16:17;3.10;;;2.30;;
29294;SDS011;16305;48.566;8.846;2022-10-16T08:18:43;2.33;;;2.13;;
29294;SDS011;16305;48.566;8.846;2022-10-16T08:21:18;2.67;;;2.47;;
29294;SDS011;16305;48.566;8.846;2022-10-16T08:23:45;3.43;;;2.27;;
29294;SDS011;16305;48.566;8.846;2022-10-16T08:26:12;3.07;;;2.13;;
29294;SDS011;16305;48.566;8.846;2022-10-16T08:28:38;1.97;;;1.77;;
29294;SDS011;16305;48.566;8.846;2022-10-16T08:31:04;6.80;;;2.40;;
29294;SDS011;16305;48.566;8.846;2022-10-16T08:33:34;3.77;;;2.00;;
29294;SDS011;16305;48.566;8.846;2022-10-16T08:36:00;3.57;;;1.80;;
29294;SDS011;16305;48.566;8.846;2022-10-16T08:38:26;3.63;;;2.80;;
29294;SDS011;16305;48.566;8.846;2022-10-16T08:40:52;2.57;;;2.13;;
29294;SDS011;16305;48.566;8.846;2022-10-16T08:46:04;6.80;;;5.50;;
29294;SDS011;16305;48.566;8.846;2022-10-16T08:48:36;5.17;;;2.50;;
29294;SDS011;16305;48.566;8.846;2022-10-16T08:51:15;2.80;;;1.87;;
29294;SDS011;16305;48.566;8.846;2022-10-16T08:53:58;4.13;;;2.63;;
29294;SDS011;16305;48.566;8.846;2022-10-16T08:56:29;2.23;;;2.03;;
29294;SDS011;16305;48.566;8.846;2022-10-16T08:58:57;2.40;;;1.83;;
29294;SDS011;16305;48.566;8.846;2022-10-16T09:01:23;3.53;;;3.00;;
29294;SDS011;16305;48.566;8.846;2022-10-16T09:22:43;7.87;;;4.40;;
29294;SDS011;16305;48.566;8.846;2022-10-16T09:25:13;6.87;;;4.60;;
29294;SDS011;16305;48.566;8.846;2022-10-16T09:27:42;2.10;;;1.90;;
29294;SDS011;16305;48.566;8.846;2022-10-16T09:30:14;2.60;;;1.67;;
29294;SDS011;16305;48.566;8.846;2022-10-16T09:32:42;2.37;;;1.87;;
29294;SDS011;16305;48.566;8.846;2022-10-16T09:35:11;3.33;;;1.77;;
29294;SDS011;16305;48.566;8.846;2022-10-16T09:37:42;2.63;;;1.67;;
29294;SDS011;16305;48.566;8.846;2022-10-16T09:40:51;2.20;;;1.50;;
29294;SDS011;16305;48.566;8.846;2022-10-16T09:43:14;2.73;;;1.43;;
29294;SDS011;16305;48.566;8.846;2022-10-16T09:45:55;4.00;;;3.57;;
29294;SDS011;16305;48.566;8.846;2022-10-16T09:48:36;4.57;;;1.40;;
29294;SDS011;16305;48.566;8.846;2022-10-16T09:51:05;2.80;;;1.80;;
29294;SDS011;16305;48.566;8.846;2022-10-16T09:53:42;2.20;;;1.73;;
29294;SDS011;16305;48.566;8.846;2022-10-16T09:56:10;2.53;;;1.30;;
29294;SDS011;16305;48.566;8.846;2022-10-16T09:58:41;4.60;;;1.53;;
29294;SDS011;16305;48.566;8.846;2022-10-16T10:01:13;2.27;;;1.37;;
29294;SDS011;16305;48.566;8.846;2022-10-16T10:03:40;2.93;;;1.47;;
29294;SDS011;16305;48.566;8.846;2022-10-16T10:06:28;2.50;;;1.50;;
29294;SDS011;16305;48.566;8.846;2022-10-16T10:09:27;1.90;;;1.43;;
29294;SDS011;16305;48.566;8.846;2022-10-16T10:12:00;4.50;;;1.37;;
29294;SDS011;16305;48.566;8.846;2022-10-16T10:14:29;3.27;;;2.23;;
29294;SDS011;16305;48.566;8.846;2022-10-16T10:19:30;2.50;;;1.70;;
29294;SDS011;16305;48.566;8.846;2022-10-16T10:22:27;2.00;;;1.60;;
29294;SDS011;16305;48.566;8.846;2022-10-16T10:33:25;3.63;;;1.60;;
29294;SDS011;16305;48.566;8.846;2022-10-16T10:36:21;7.07;;;2.40;;
29294;SDS011;16305;48.566;8.846;2022-10-16T10:46:56;2.00;;;1.43;;
29294;SDS011;16305;48.566;8.846;2022-10-16T10:57:19;2.93;;;1.57;;
29294;SDS011;16305;48.566;8.846;2022-10-16T11:02:50;5.97;;;1.63;;
29294;SDS011;16305;48.566;8.846;2022-10-16T11:10:42;3.30;;;2.13;;
29294;SDS011;16305;48.566;8.846;2022-10-16T11:13:28;1.20;;;1.10;;
29294;SDS011;16305;48.566;8.846;2022-10-16T11:15:57;3.37;;;1.53;;
29294;SDS011;16305;48.566;8.846;2022-10-16T11:18:38;1.27;;;1.17;;
29294;SDS011;16305;48.566;8.846;2022-10-16T11:21:07;1.57;;;1.27;;
29294;SDS011;16305;48.566;8.846;2022-10-16T11:23:40;1.60;;;1.30;;
29294;SDS011;16305;48.566;8.846;2022-10-16T11:26:17;2.33;;;1.03;;
29294;SDS011;16305;48.566;8.846;2022-10-16T11:28:49;1.70;;;1.13;;
29294;SDS011;16305;48.566;8.846;2022-10-16T11:34:10;1.77;;;0.90;;
29294;SDS011;16305;48.566;8.846;2022-10-16T11:37:02;1.48;;;1.00;;
29294;SDS011;16305;48.566;8.846;2022-10-16T11:39:44;1.10;;;1.00;;
29294;SDS011;16305;48.566;8.846;2022-10-16T11:42:13;0.90;;;0.90;;
29294;SDS011;16305;48.566;8.846;2022-10-16T11:47:30;1.30;;;1.20;;
29294;SDS011;16305;48.566;8.846;2022-10-16T11:53:13;2.25;;;0.90;;
29294;SDS011;16305;48.566;8.846;2022-10-16T11:56:01;4.30;;;0.98;;
29294;SDS011;16305;48.566;8.846;2022-10-16T11:58:29;2.22;;;1.20;;
29294;SDS011;16305;48.566;8.846;2022-10-16T12:01:16;5.40;;;1.10;;
29294;SDS011;16305;48.566;8.846;2022-10-16T12:03:48;1.08;;;0.98;;
29294;SDS011;16305;48.566;8.846;2022-10-16T12:09:02;1.48;;;0.98;;
29294;SDS011;16305;48.566;8.846;2022-10-16T12:16:59;1.40;;;1.20;;
29294;SDS011;16305;48.566;8.846;2022-10-16T12:19:30;1.57;;;1.30;;
29294;SDS011;16305;48.566;8.846;2022-10-16T12:21:58;2.23;;;1.07;;
29294;SDS011;16305;48.566;8.846;2022-10-16T12:24:35;1.52;;;1.10;;
29294;SDS011;16305;48.566;8.846;2022-10-16T12:27:03;1.98;;;1.10;;
29294;SDS011;16305;48.566;8.846;2022-10-16T12:29:38;1.48;;;1.00;;
29294;SDS011;16305;48.566;8.846;2022-10-16T12:32:06;0.90;;;0.90;;
29294;SDS011;16305;48.566;8.846;2022-10-16T12:34:53;4.47;;;1.35;;
29294;SDS011;16305;48.566;8.846;2022-10-16T12:37:21;2.78;;;0.80;;
29294;SDS011;16305;48.566;8.846;2022-10-16T12:39:58;2.00;;;0.90;;
29294;SDS011;16305;48.566;8.846;2022-10-16T12:42:35;1.50;;;1.23;;
29294;SDS011;16305;48.566;8.846;2022-10-16T12:45:01;2.05;;;1.00;;
29294;SDS011;16305;48.566;8.846;2022-10-16T12:47:46;1.67;;;1.02;;
29294;SDS011;16305;48.566;8.846;2022-10-16T12:50:24;0.93;;;0.93;;
29294;SDS011;16305;48.566;8.846;2022-10-16T12:53:00;2.38;;;1.00;;
29294;SDS011;16305;48.566;8.846;2022-10-16T12:55:32;2.50;;;1.00;;
29294;SDS011;16305;48.566;8.846;2022-10-16T13:01:19;1.98;;;1.10;;
29294;SDS011;16305;48.566;8.846;2022-10-16T13:06:41;2.28;;;1.20;;
29294;SDS011;16305;48.566;8.846;2022-10-16T13:16:59;2.38;;;1.50;;
29294;SDS011;16305;48.566;8.846;2022-10-16T13:20:03;1.30;;;1.20;;
29294;SDS011;16305;48.566;8.846;2022-10-16T13:25:39;1.30;;;1.20;;
29294;SDS011;16305;48.566;8.846;2022-10-16T13:28:22;1.75;;;1.40;;
29294;SDS011;16305;48.566;8.846;2022-10-16T13:30:56;2.50;;;1.40;;
29294;SDS011;16305;48.566;8.846;2022-10-16T13:36:00;2.80;;;1.63;;
29294;SDS011;16305;48.566;8.846;2022-10-16T13:38:30;3.07;;;1.43;;
29294;SDS011;16305;48.566;8.846;2022-10-16T13:41:01;1.57;;;1.43;;
29294;SDS011;16305;48.566;8.846;2022-10-16T13:43:38;1.40;;;1.30;;
29294;SDS011;16305;48.566;8.846;2022-10-16T13:46:17;3.60;;;1.73;;
29294;SDS011;16305;48.566;8.846;2022-10-16T13:48:44;6.30;;;1.70;;
29294;SDS011;16305;48.566;8.846;2022-10-16T13:51:20;1.97;;;1.20;;
29294;SDS011;16305;48.566;8.846;2022-10-16T13:53:46;2.50;;;1.50;;
29294;SDS011;16305;48.566;8.846;2022-10-16T13:56:15;3.23;;;1.97;;
29294;SDS011;16305;48.566;8.846;2022-10-16T13:58:44;2.73;;;2.10;;
29294;SDS011;16305;48.566;8.846;2022-10-16T14:01:44;3.93;;;1.83;;
29294;SDS011;16305;48.566;8.846;2022-10-16T14:04:09;2.70;;;2.20;;
29294;SDS011;16305;48.566;8.846;2022-10-16T14:06:36;2.83;;;1.90;;
29294;SDS011;16305;48.566;8.846;2022-10-16T14:09:07;2.53;;;1.90;;
29294;SDS011;16305;48.566;8.846;2022-10-16T14:11:48;2.77;;;1.90;;
29294;SDS011;16305;48.566;8.846;2022-10-16T14:14:16;1.93;;;1.63;;
29294;SDS011;16305;48.566;8.846;2022-10-16T14:16:43;2.03;;;1.53;;
29294;SDS011;16305;48.566;8.846;2022-10-16T14:19:18;4.13;;;2.83;;
29294;SDS011;16305;48.566;8.846;2022-10-16T14:21:49;4.67;;;3.00;;
29294;SDS011;16305;48.566;8.846;2022-10-16T14:32:54;3.37;;;1.80;;
29294;SDS011;16305;48.566;8.846;2022-10-16T14:35:22;3.93;;;1.63;;
29294;SDS011;16305;48.566;8.846;2022-10-16T14:37:51;4.20;;;2.10;;
29294;SDS011;16305;48.566;8.846;2022-10-16T14:40:18;2.40;;;2.20;;
29294;SDS011;16305;48.566;8.846;2022-10-16T14:42:45;2.10;;;1.80;;
29294;SDS011;16305;48.566;8.846;2022-10-16T14:45:11;3.30;;;1.90;;
29294;SDS011;16305;48.566;8.846;2022-10-16T14:47:37;1.55;;;1.42;;
29294;SDS011;16305;48.566;8.846;2022-10-16T14:50:18;2.45;;;1.70;;
29294;SDS011;16305;48.566;8.846;2022-10-16T14:52:44;6.47;;;2.35;;
29294;SDS011;16305;48.566;8.846;2022-10-16T14:55:10;1.40;;;1.27;;
29294;SDS011;16305;48.566;8.846;2022-10-16T14:57:35;2.72;;;1.30;;
29294;SDS011;16305;48.566;8.846;2022-10-16T15:00:08;1.50;;;1.30;;
29294;SDS011;16305;48.566;8.846;2022-10-16T15:02:40;1.63;;;1.23;;
29294;SDS011;16305;48.566;8.846;2022-10-16T15:05:13;2.60;;;1.50;;
29294;SDS011;16305;48.566;8.846;2022-10-16T15:07:44;1.40;;;1.30;;
29294;SDS011;16305;48.566;8.846;2022-10-16T15:10:11;1.70;;;1.37;;
29294;SDS011;16305;48.566;8.846;2022-10-16T15:12:37;1.63;;;1.50;;
29294;SDS011;16305;48.566;8.846;2022-10-16T15:15:23;2.03;;;1.57;;
29294;SDS011;16305;48.566;8.846;2022-10-16T15:17:57;2.33;;;1.80;;
29294;SDS011;16305;48.566;8.846;2022-10-16T15:20:26;1.67;;;1.57;;
29294;SDS011;16305;48.566;8.846;2022-10-16T15:22:53;1.80;;;1.40;;
29294;SDS011;16305;48.566;8.846;2022-10-16T15:27:59;3.38;;;1.50;;
29294;SDS011;16305;48.566;8.846;2022-10-16T15:30:26;2.03;;;1.77;;
29294;SDS011;16305;48.566;8.846;2022-10-16T15:32:52;3.73;;;1.40;;
29294;SDS011;16305;48.566;8.846;2022-10-16T15:35:18;2.90;;;1.63;;
29294;SDS011;16305;48.566;8.846;2022-10-16T15:37:44;3.07;;;1.63;;
29294;SDS011;16305;48.566;8.846;2022-10-16T15:40:10;6.50;;;1.77;;
29294;SDS011;16305;48.566;8.846;2022-10-16T15:42:36;2.03;;;1.50;;
29294;SDS011;16305;48.566;8.846;2022-10-16T15:45:02;3.33;;;1.60;;
29294;SDS011;16305;48.566;8.846;2022-10-16T15:47:28;1.57;;;1.47;;
29294;SDS011;16305;48.566;8.846;2022-10-16T15:49:54;3.57;;;1.77;;
29294;SDS011;16305;48.566;8.846;2022-10-16T15:52:20;2.60;;;1.60;;
29294;SDS011;16305;48.566;8.846;2022-10-16T15:54:45;4.60;;;1.70;;
29294;SDS011;16305;48.566;8.846;2022-10-16T15:57:11;5.87;;;2.10;;
29294;SDS011;16305;48.566;8.846;2022-10-16T15:59:36;3.33;;;1.53;;
29294;SDS011;16305;48.566;8.846;2022-10-16T16:02:02;2.70;;;1.67;;
29294;SDS011;16305;48.566;8.846;2022-10-16T16:04:31;2.53;;;1.83;;
29294;SDS011;16305;48.566;8.846;2022-10-16T16:06:57;2.37;;;1.97;;
29294;SDS011;16305;48.566;8.846;2022-10-16T16:09:22;4.17;;;1.57;;
29294;SDS011;16305;48.566;8.846;2022-10-16T16:11:48;4.17;;;1.80;;
29294;SDS011;16305;48.566;8.846;2022-10-16T16:14:16;4.90;;;1.83;;
29294;SDS011;16305;48.566;8.846;2022-10-16T16:16:41;2.77;;;1.70;;
29294;SDS011;16305;48.566;8.846;2022-10-16T16:19:07;2.40;;;2.03;;
29294;SDS011;16305;48.566;8.846;2022-10-16T16:21:34;4.67;;;2.17;;
29294;SDS011;16305;48.566;8.846;2022-10-16T16:23:59;5.33;;;2.20;;
29294;SDS011;16305;48.566;8.846;2022-10-16T16:26:26;3.53;;;2.00;;
29294;SDS011;16305;48.566;8.846;2022-10-16T16:28:54;3.33;;;2.60;;
29294;SDS011;16305;48.566;8.846;2022-10-16T16:31:23;3.50;;;2.50;;
29294;SDS011;16305;48.566;8.846;2022-10-16T16:33:50;2.90;;;2.13;;
29294;SDS011;16305;48.566;8.846;2022-10-16T16:36:16;3.37;;;2.27;;
29294;SDS011;16305;48.566;8.846;2022-10-16T16:38:43;4.27;;;2.70;;
29294;SDS011;16305;48.566;8.846;2022-10-16T16:41:19;2.87;;;2.67;;
29294;SDS011;16305;48.566;8.846;2022-10-16T16:43:46;5.23;;;3.43;;
29294;SDS011;16305;48.566;8.846;2022-10-16T16:46:13;5.20;;;3.80;;
29294;SDS011;16305;48.566;8.846;2022-10-16T16:48:39;9.10;;;4.63;;
29294;SDS011;16305;48.566;8.846;2022-10-16T16:51:06;8.57;;;4.70;;
29294;SDS011;16305;48.566;8.846;2022-10-16T16:53:34;5.70;;;4.70;;
29294;SDS011;16305;48.566;8.846;2022-10-16T16:56:04;7.73;;;5.23;;